sensor_id;sensor_type;location;lat;lon;timestamp;pressure;altitude;pressure_sealevel;temperature;humidity
58295;BME280;45705;55.592;37.460;2024-03-08T00:00:02;99196.13;;;-3.33;75.56
58295;BME280;45705;55.592;37.460;2024-03-08T00:02:49;99196.66;;;-3.50;76.54
58295;BME280;45705;55.592;37.460;2024-03-08T00:05:16;99203.31;;;-3.66;77.49
58295;BME280;45705;55.592;37.460;2024-03-08T00:07:43;99186.56;;;-3.66;77.64
58295;BME280;45705;55.592;37.460;2024-03-08T00:10:11;99193.91;;;-3.68;78.11
58295;BME280;45705;55.592;37.460;2024-03-08T00:12:42;99191.03;;;-3.67;78.42
58295;BME280;45705;55.592;37.460;2024-03-08T00:15:09;99180.28;;;-3.72;77.92
58295;BME280;45705;55.592;37.460;2024-03-08T00:17:36;99183.84;;;-3.60;77.01
58295;BME280;45705;55.592;37.460;2024-03-08T00:20:04;99182.06;;;-3.66;76.68
58295;BME280;45705;55.592;37.460;2024-03-08T00:22:30;99177.88;;;-3.55;76.42
58295;BME280;45705;55.592;37.460;2024-03-08T00:24:56;99172.16;;;-3.52;76.10
58295;BME280;45705;55.592;37.460;2024-03-08T00:29:58;99170.34;;;-3.90;76.85
58295;BME280;45705;55.592;37.460;2024-03-08T00:32:24;99168.59;;;-3.71;77.00
58295;BME280;45705;55.592;37.460;2024-03-08T00:34:51;99171.53;;;-3.86;77.11
58295;BME280;45705;55.592;37.460;2024-03-08T00:37:23;99162.00;;;-3.62;76.90
58295;BME280;45705;55.592;37.460;2024-03-08T00:39:49;99151.84;;;-3.71;76.32
58295;BME280;45705;55.592;37.460;2024-03-08T00:42:16;99154.19;;;-3.82;77.32
58295;BME280;45705;55.592;37.460;2024-03-08T00:44:42;99157.72;;;-3.94;78.05
58295;BME280;45705;55.592;37.460;2024-03-08T00:47:08;99153.09;;;-3.74;77.67
58295;BME280;45705;55.592;37.460;2024-03-08T00:49:34;99138.13;;;-3.68;76.66
58295;BME280;45705;55.592;37.460;2024-03-08T00:52:02;99141.06;;;-3.51;76.48
58295;BME280;45705;55.592;37.460;2024-03-08T00:54:28;99121.44;;;-3.50;75.79
58295;BME280;45705;55.592;37.460;2024-03-08T00:56:56;99127.25;;;-3.17;74.44
58295;BME280;45705;55.592;37.460;2024-03-08T00:59:22;99119.69;;;-3.38;74.27
58295;BME280;45705;55.592;37.460;2024-03-08T01:01:47;99110.50;;;-3.17;73.80
58295;BME280;45705;55.592;37.460;2024-03-08T01:04:13;99128.63;;;-3.32;74.20
58295;BME280;45705;55.592;37.460;2024-03-08T01:06:39;99117.69;;;-3.43;74.28
58295;BME280;45705;55.592;37.460;2024-03-08T01:09:05;99130.31;;;-3.38;74.51
58295;BME280;45705;55.592;37.460;2024-03-08T01:11:33;99123.06;;;-3.49;74.26
58295;BME280;45705;55.592;37.460;2024-03-08T01:13:59;99094.91;;;-3.57;74.79
58295;BME280;45705;55.592;37.460;2024-03-08T01:16:25;99103.44;;;-3.48;74.73
58295;BME280;45705;55.592;37.460;2024-03-08T01:21:27;99081.28;;;-3.42;73.61
58295;BME280;45705;55.592;37.460;2024-03-08T01:23:53;99093.59;;;-3.04;72.98
58295;BME280;45705;55.592;37.460;2024-03-08T01:26:19;99098.81;;;-3.34;73.27
58295;BME280;45705;55.592;37.460;2024-03-08T01:28:44;99102.88;;;-3.32;73.77
58295;BME280;45705;55.592;37.460;2024-03-08T01:31:10;99095.75;;;-3.38;74.28
58295;BME280;45705;55.592;37.460;2024-03-08T01:33:36;99087.38;;;-3.35;74.73
58295;BME280;45705;55.592;37.460;2024-03-08T01:36:02;99096.72;;;-3.76;76.89
58295;BME280;45705;55.592;37.460;2024-03-08T01:38:28;99085.63;;;-3.73;76.90
58295;BME280;45705;55.592;37.460;2024-03-08T01:40:54;99088.41;;;-4.18;77.38
58295;BME280;45705;55.592;37.460;2024-03-08T01:43:21;99088.13;;;-3.78;78.04
58295;BME280;45705;55.592;37.460;2024-03-08T01:45:48;99095.00;;;-3.96;77.47
58295;BME280;45705;55.592;37.460;2024-03-08T01:48:17;99089.84;;;-3.90;77.30
58295;BME280;45705;55.592;37.460;2024-03-08T01:50:44;99093.19;;;-4.02;78.05
58295;BME280;45705;55.592;37.460;2024-03-08T01:53:10;99088.75;;;-4.08;77.88
58295;BME280;45705;55.592;37.460;2024-03-08T01:55:38;99070.16;;;-3.76;76.62
58295;BME280;45705;55.592;37.460;2024-03-08T01:58:05;99064.34;;;-3.91;76.92
58295;BME280;45705;55.592;37.460;2024-03-08T02:00:35;99076.97;;;-3.62;76.00
58295;BME280;45705;55.592;37.460;2024-03-08T02:03:02;99084.44;;;-3.52;75.92
58295;BME280;45705;55.592;37.460;2024-03-08T02:05:28;99072.06;;;-3.65;75.86
58295;BME280;45705;55.592;37.460;2024-03-08T02:07:54;99069.69;;;-3.73;75.99
58295;BME280;45705;55.592;37.460;2024-03-08T02:10:20;99077.84;;;-3.68;76.44
58295;BME280;45705;55.592;37.460;2024-03-08T02:12:48;99075.28;;;-3.81;76.31
58295;BME280;45705;55.592;37.460;2024-03-08T02:15:14;99085.81;;;-4.00;77.21
58295;BME280;45705;55.592;37.460;2024-03-08T02:17:40;99081.97;;;-4.04;77.40
58295;BME280;45705;55.592;37.460;2024-03-08T02:20:07;99081.72;;;-3.96;77.87
58295;BME280;45705;55.592;37.460;2024-03-08T02:22:34;99074.47;;;-4.07;77.62
58295;BME280;45705;55.592;37.460;2024-03-08T02:25:02;99072.41;;;-4.05;77.68
58295;BME280;45705;55.592;37.460;2024-03-08T02:27:29;99060.66;;;-4.22;78.10
58295;BME280;45705;55.592;37.460;2024-03-08T02:29:58;99055.38;;;-4.22;79.05
58295;BME280;45705;55.592;37.460;2024-03-08T02:32:25;99066.06;;;-4.42;79.54
58295;BME280;45705;55.592;37.460;2024-03-08T02:34:51;99061.06;;;-4.57;81.17
58295;BME280;45705;55.592;37.460;2024-03-08T02:37:24;99056.00;;;-4.65;82.23
58295;BME280;45705;55.592;37.460;2024-03-08T02:39:50;99058.91;;;-4.73;82.99
58295;BME280;45705;55.592;37.460;2024-03-08T02:42:16;99059.34;;;-4.77;83.30
58295;BME280;45705;55.592;37.460;2024-03-08T02:44:44;99060.09;;;-4.63;83.95
58295;BME280;45705;55.592;37.460;2024-03-08T02:47:10;99067.41;;;-4.58;83.31
58295;BME280;45705;55.592;37.460;2024-03-08T02:49:36;99066.28;;;-4.89;85.03
58295;BME280;45705;55.592;37.460;2024-03-08T02:52:04;99059.78;;;-4.93;84.46
58295;BME280;45705;55.592;37.460;2024-03-08T02:54:30;99065.84;;;-4.72;85.47
58295;BME280;45705;55.592;37.460;2024-03-08T02:56:56;99055.22;;;-4.72;84.61
58295;BME280;45705;55.592;37.460;2024-03-08T02:59:22;99055.69;;;-4.89;85.38
58295;BME280;45705;55.592;37.460;2024-03-08T03:01:49;99051.84;;;-4.93;85.81
58295;BME280;45705;55.592;37.460;2024-03-08T03:04:15;99047.56;;;-4.94;85.95
58295;BME280;45705;55.592;37.460;2024-03-08T03:06:40;99049.63;;;-5.03;86.23
58295;BME280;45705;55.592;37.460;2024-03-08T03:09:07;99053.16;;;-5.16;86.34
58295;BME280;45705;55.592;37.460;2024-03-08T03:11:35;99043.03;;;-4.87;86.89
58295;BME280;45705;55.592;37.460;2024-03-08T03:14:01;99035.16;;;-5.07;86.16
58295;BME280;45705;55.592;37.460;2024-03-08T03:16:27;99039.78;;;-4.89;85.75
58295;BME280;45705;55.592;37.460;2024-03-08T03:18:52;99037.81;;;-5.07;86.15
58295;BME280;45705;55.592;37.460;2024-03-08T03:21:18;99028.84;;;-5.06;86.84
58295;BME280;45705;55.592;37.460;2024-03-08T03:23:44;99021.94;;;-5.13;87.90
58295;BME280;45705;55.592;37.460;2024-03-08T03:26:10;99021.94;;;-5.13;87.46
58295;BME280;45705;55.592;37.460;2024-03-08T03:28:38;99018.13;;;-5.31;87.65
58295;BME280;45705;55.592;37.460;2024-03-08T03:31:08;99016.69;;;-5.34;88.68
58295;BME280;45705;55.592;37.460;2024-03-08T03:33:40;99019.38;;;-5.47;90.42
58295;BME280;45705;55.592;37.460;2024-03-08T03:36:06;99015.53;;;-5.58;90.96
58295;BME280;45705;55.592;37.460;2024-03-08T03:38:34;99013.91;;;-5.59;91.03
58295;BME280;45705;55.592;37.460;2024-03-08T03:41:00;99008.94;;;-5.35;92.18
58295;BME280;45705;55.592;37.460;2024-03-08T03:43:36;99006.97;;;-5.53;92.49
58295;BME280;45705;55.592;37.460;2024-03-08T03:46:06;99005.13;;;-5.46;92.66
58295;BME280;45705;55.592;37.460;2024-03-08T03:48:32;99004.44;;;-5.28;92.62
58295;BME280;45705;55.592;37.460;2024-03-08T03:50:58;98989.81;;;-5.44;92.80
58295;BME280;45705;55.592;37.460;2024-03-08T03:53:23;99004.03;;;-5.31;92.57
58295;BME280;45705;55.592;37.460;2024-03-08T03:55:51;98997.75;;;-5.37;93.06
58295;BME280;45705;55.592;37.460;2024-03-08T03:58:17;98984.94;;;-5.40;93.19
58295;BME280;45705;55.592;37.460;2024-03-08T04:00:48;98993.69;;;-5.33;93.42
58295;BME280;45705;55.592;37.460;2024-03-08T04:03:14;98990.97;;;-5.20;92.91
58295;BME280;45705;55.592;37.460;2024-03-08T04:05:40;98994.66;;;-5.21;92.78
58295;BME280;45705;55.592;37.460;2024-03-08T04:08:06;98989.25;;;-5.01;92.24
58295;BME280;45705;55.592;37.460;2024-03-08T04:10:31;98980.09;;;-5.05;92.97
58295;BME280;45705;55.592;37.460;2024-03-08T04:12:57;98992.50;;;-4.99;92.54
58295;BME280;45705;55.592;37.460;2024-03-08T04:15:23;98987.50;;;-5.20;92.84
58295;BME280;45705;55.592;37.460;2024-03-08T04:17:49;98973.09;;;-5.31;93.46
58295;BME280;45705;55.592;37.460;2024-03-08T04:20:15;98994.16;;;-5.04;93.15
58295;BME280;45705;55.592;37.460;2024-03-08T04:22:42;98989.00;;;-4.86;91.87
58295;BME280;45705;55.592;37.460;2024-03-08T04:25:10;98992.56;;;-5.05;93.25
58295;BME280;45705;55.592;37.460;2024-03-08T04:27:36;98982.75;;;-4.98;92.80
58295;BME280;45705;55.592;37.460;2024-03-08T04:30:02;98980.31;;;-5.06;92.35
58295;BME280;45705;55.592;37.460;2024-03-08T04:32:31;98976.53;;;-4.85;91.94
58295;BME280;45705;55.592;37.460;2024-03-08T04:34:57;98974.66;;;-5.17;93.00
58295;BME280;45705;55.592;37.460;2024-03-08T04:37:24;98989.28;;;-5.07;92.79
58295;BME280;45705;55.592;37.460;2024-03-08T04:39:50;98983.50;;;-4.91;92.23
58295;BME280;45705;55.592;37.460;2024-03-08T04:42:16;98968.63;;;-4.92;91.96
58295;BME280;45705;55.592;37.460;2024-03-08T04:44:44;98972.03;;;-4.85;91.56
58295;BME280;45705;55.592;37.460;2024-03-08T04:47:10;98981.84;;;-4.85;90.77
58295;BME280;45705;55.592;37.460;2024-03-08T04:49:36;98971.69;;;-4.88;91.17
58295;BME280;45705;55.592;37.460;2024-03-08T04:52:05;98961.88;;;-4.88;91.86
58295;BME280;45705;55.592;37.460;2024-03-08T04:54:33;98980.22;;;-4.86;91.84
58295;BME280;45705;55.592;37.460;2024-03-08T04:56:58;98976.34;;;-4.84;91.88
58295;BME280;45705;55.592;37.460;2024-03-08T04:59:27;98968.72;;;-4.73;91.60
58295;BME280;45705;55.592;37.460;2024-03-08T05:01:53;98974.09;;;-4.87;92.17
58295;BME280;45705;55.592;37.460;2024-03-08T05:04:20;98961.34;;;-4.71;92.86
58295;BME280;45705;55.592;37.460;2024-03-08T05:06:46;98975.28;;;-4.83;93.11
58295;BME280;45705;55.592;37.460;2024-03-08T05:09:12;98973.94;;;-4.60;93.07
58295;BME280;45705;55.592;37.460;2024-03-08T05:11:45;98970.44;;;-4.92;94.28
58295;BME280;45705;55.592;37.460;2024-03-08T05:14:11;98957.94;;;-4.79;95.23
58295;BME280;45705;55.592;37.460;2024-03-08T05:16:43;98964.91;;;-4.52;94.32
58295;BME280;45705;55.592;37.460;2024-03-08T05:19:09;98971.00;;;-4.45;93.54
58295;BME280;45705;55.592;37.460;2024-03-08T05:21:35;98966.91;;;-4.48;93.30
58295;BME280;45705;55.592;37.460;2024-03-08T05:24:01;98963.19;;;-4.40;93.71
58295;BME280;45705;55.592;37.460;2024-03-08T05:26:26;98955.72;;;-4.82;96.54
58295;BME280;45705;55.592;37.460;2024-03-08T05:28:52;98950.22;;;-4.87;98.02
58295;BME280;45705;55.592;37.460;2024-03-08T05:31:21;98956.69;;;-4.76;98.97
58295;BME280;45705;55.592;37.460;2024-03-08T05:33:50;98958.66;;;-4.33;97.90
58295;BME280;45705;55.592;37.460;2024-03-08T05:36:16;98939.06;;;-4.32;97.20
58295;BME280;45705;55.592;37.460;2024-03-08T05:38:45;98951.16;;;-4.43;97.54
58295;BME280;45705;55.592;37.460;2024-03-08T05:41:10;98957.06;;;-4.41;98.20
58295;BME280;45705;55.592;37.460;2024-03-08T05:43:40;98947.16;;;-4.27;97.10
58295;BME280;45705;55.592;37.460;2024-03-08T05:46:06;98955.00;;;-4.39;97.08
58295;BME280;45705;55.592;37.460;2024-03-08T05:48:32;98946.25;;;-4.39;98.64
58295;BME280;45705;55.592;37.460;2024-03-08T05:51:10;98957.47;;;-4.37;98.54
58295;BME280;45705;55.592;37.460;2024-03-08T05:53:37;98949.38;;;-4.49;98.47
58295;BME280;45705;55.592;37.460;2024-03-08T05:56:03;98952.22;;;-4.44;98.91
58295;BME280;45705;55.592;37.460;2024-03-08T05:58:29;98957.16;;;-4.54;99.25
58295;BME280;45705;55.592;37.460;2024-03-08T06:00:58;98956.59;;;-4.31;98.45
58295;BME280;45705;55.592;37.460;2024-03-08T06:03:24;98955.09;;;-4.20;97.23
58295;BME280;45705;55.592;37.460;2024-03-08T06:05:50;98947.53;;;-4.23;96.08
58295;BME280;45705;55.592;37.460;2024-03-08T06:08:16;98953.16;;;-4.13;96.15
58295;BME280;45705;55.592;37.460;2024-03-08T06:10:42;98955.06;;;-3.95;96.04
58295;BME280;45705;55.592;37.460;2024-03-08T06:13:07;98956.88;;;-4.14;95.29
58295;BME280;45705;55.592;37.460;2024-03-08T06:15:33;98949.69;;;-3.88;94.15
58295;BME280;45705;55.592;37.460;2024-03-08T06:18:00;98951.13;;;-4.11;93.97
58295;BME280;45705;55.592;37.460;2024-03-08T06:20:26;98954.53;;;-4.04;94.46
58295;BME280;45705;55.592;37.460;2024-03-08T06:22:52;98942.44;;;-4.00;94.30
58295;BME280;45705;55.592;37.460;2024-03-08T06:25:18;98942.25;;;-3.80;93.38
58295;BME280;45705;55.592;37.460;2024-03-08T06:27:44;98926.84;;;-3.89;92.97
58295;BME280;45705;55.592;37.460;2024-03-08T06:30:12;98945.50;;;-3.78;92.43
58295;BME280;45705;55.592;37.460;2024-03-08T06:32:38;98943.81;;;-3.72;92.55
58295;BME280;45705;55.592;37.460;2024-03-08T06:35:05;98933.91;;;-3.65;92.42
58295;BME280;45705;55.592;37.460;2024-03-08T06:37:32;98935.19;;;-3.49;91.40
58295;BME280;45705;55.592;37.460;2024-03-08T06:39:58;98933.63;;;-3.38;90.13
58295;BME280;45705;55.592;37.460;2024-03-08T06:42:24;98934.63;;;-3.21;89.19
58295;BME280;45705;55.592;37.460;2024-03-08T06:44:50;98931.13;;;-3.33;88.41
58295;BME280;45705;55.592;37.460;2024-03-08T06:47:16;98931.75;;;-3.38;89.21
58295;BME280;45705;55.592;37.460;2024-03-08T06:49:42;98940.41;;;-3.24;88.63
58295;BME280;45705;55.592;37.460;2024-03-08T06:52:10;98878.69;;;-3.63;87.88
58295;BME280;45705;55.592;37.460;2024-03-08T06:54:36;98931.53;;;-3.18;87.55
58295;BME280;45705;55.592;37.460;2024-03-08T06:57:05;98934.84;;;-3.04;86.93
58295;BME280;45705;55.592;37.460;2024-03-08T06:59:31;98944.34;;;-2.96;85.64
58295;BME280;45705;55.592;37.460;2024-03-08T07:01:57;98932.66;;;-2.95;85.70
58295;BME280;45705;55.592;37.460;2024-03-08T07:04:25;98940.09;;;-3.15;86.10
58295;BME280;45705;55.592;37.460;2024-03-08T07:06:56;98929.25;;;-2.84;85.38
58295;BME280;45705;55.592;37.460;2024-03-08T07:09:23;98926.38;;;-2.70;84.69
58295;BME280;45705;55.592;37.460;2024-03-08T07:11:51;98932.88;;;-2.66;83.54
58295;BME280;45705;55.592;37.460;2024-03-08T07:14:24;98922.91;;;-2.83;84.18
58295;BME280;45705;55.592;37.460;2024-03-08T07:16:50;98928.81;;;-2.81;84.01
58295;BME280;45705;55.592;37.460;2024-03-08T07:19:16;98936.97;;;-2.52;84.23
58295;BME280;45705;55.592;37.460;2024-03-08T07:21:43;98927.94;;;-2.51;82.66
58295;BME280;45705;55.592;37.460;2024-03-08T07:24:10;98900.16;;;-2.55;81.62
58295;BME280;45705;55.592;37.460;2024-03-08T07:26:43;98923.91;;;-2.42;81.44
58295;BME280;45705;55.592;37.460;2024-03-08T07:29:09;98920.69;;;-2.32;81.62
58295;BME280;45705;55.592;37.460;2024-03-08T07:31:35;98932.13;;;-2.31;80.86
58295;BME280;45705;55.592;37.460;2024-03-08T07:34:07;98916.03;;;-2.37;81.31
58295;BME280;45705;55.592;37.460;2024-03-08T07:36:34;98932.38;;;-2.33;81.45
58295;BME280;45705;55.592;37.460;2024-03-08T07:39:00;98911.75;;;-2.38;80.60
58295;BME280;45705;55.592;37.460;2024-03-08T07:41:27;98928.25;;;-2.17;80.53
58295;BME280;45705;55.592;37.460;2024-03-08T07:43:54;98928.47;;;-2.07;80.48
58295;BME280;45705;55.592;37.460;2024-03-08T07:46:20;98919.19;;;-2.16;80.06
58295;BME280;45705;55.592;37.460;2024-03-08T07:48:46;98926.03;;;-1.96;79.28
58295;BME280;45705;55.592;37.460;2024-03-08T07:51:12;98921.28;;;-1.83;79.42
58295;BME280;45705;55.592;37.460;2024-03-08T07:53:38;98926.25;;;-1.74;77.89
58295;BME280;45705;55.592;37.460;2024-03-08T07:56:04;98916.06;;;-1.77;78.68
58295;BME280;45705;55.592;37.460;2024-03-08T07:58:35;98919.84;;;-1.62;78.07
58295;BME280;45705;55.592;37.460;2024-03-08T08:01:00;98920.78;;;-1.68;77.01
58295;BME280;45705;55.592;37.460;2024-03-08T08:03:26;98921.56;;;-1.44;76.51
58295;BME280;45705;55.592;37.460;2024-03-08T08:05:52;98917.13;;;-1.38;76.97
58295;BME280;45705;55.592;37.460;2024-03-08T08:08:19;98917.38;;;-1.28;75.88
58295;BME280;45705;55.592;37.460;2024-03-08T08:10:44;98919.13;;;-1.33;76.22
58295;BME280;45705;55.592;37.460;2024-03-08T08:13:10;98908.03;;;-1.13;75.32
58295;BME280;45705;55.592;37.460;2024-03-08T08:15:36;98911.88;;;-0.92;74.52
58295;BME280;45705;55.592;37.460;2024-03-08T08:18:02;98895.06;;;-0.93;73.55
58295;BME280;45705;55.592;37.460;2024-03-08T08:20:31;98906.03;;;-1.06;72.94
58295;BME280;45705;55.592;37.460;2024-03-08T08:22:57;98905.06;;;-1.00;74.05
58295;BME280;45705;55.592;37.460;2024-03-08T08:25:24;98901.63;;;-0.84;72.88
58295;BME280;45705;55.592;37.460;2024-03-08T08:27:50;98901.16;;;-0.81;73.18
58295;BME280;45705;55.592;37.460;2024-03-08T08:30:16;98903.06;;;-0.47;71.75
58295;BME280;45705;55.592;37.460;2024-03-08T08:32:42;98911.06;;;-0.47;71.05
58295;BME280;45705;55.592;37.460;2024-03-08T08:35:08;98899.97;;;-0.39;70.91
58295;BME280;45705;55.592;37.460;2024-03-08T08:37:35;98896.09;;;-0.31;70.59
58295;BME280;45705;55.592;37.460;2024-03-08T08:40:04;98899.16;;;-0.40;70.31
58295;BME280;45705;55.592;37.460;2024-03-08T08:42:37;98901.59;;;-0.38;70.37
58295;BME280;45705;55.592;37.460;2024-03-08T08:45:07;98891.94;;;-0.05;69.65
58295;BME280;45705;55.592;37.460;2024-03-08T08:47:36;98891.53;;;-0.14;69.92
58295;BME280;45705;55.592;37.460;2024-03-08T08:50:03;98895.09;;;-0.08;69.83
58295;BME280;45705;55.592;37.460;2024-03-08T08:52:31;98895.59;;;-0.11;69.47
58295;BME280;45705;55.592;37.460;2024-03-08T08:54:57;98884.75;;;-0.05;69.57
58295;BME280;45705;55.592;37.460;2024-03-08T08:57:23;98891.25;;;-0.17;70.42
58295;BME280;45705;55.592;37.460;2024-03-08T08:59:49;98894.16;;;-0.19;70.40
58295;BME280;45705;55.592;37.460;2024-03-08T09:02:15;98898.31;;;0.11;69.27
58295;BME280;45705;55.592;37.460;2024-03-08T09:04:42;98900.00;;;0.17;68.78
58295;BME280;45705;55.592;37.460;2024-03-08T09:07:09;98900.97;;;-0.11;68.96
58295;BME280;45705;55.592;37.460;2024-03-08T09:09:35;98900.00;;;0.17;69.20
58295;BME280;45705;55.592;37.460;2024-03-08T09:12:01;98898.97;;;0.18;68.68
58295;BME280;45705;55.592;37.460;2024-03-08T09:14:27;98900.91;;;0.06;69.40
58295;BME280;45705;55.592;37.460;2024-03-08T09:16:53;98895.56;;;0.06;69.43
58295;BME280;45705;55.592;37.460;2024-03-08T09:19:18;98891.50;;;0.20;69.16
58295;BME280;45705;55.592;37.460;2024-03-08T09:21:46;98899.28;;;0.22;68.33
58295;BME280;45705;55.592;37.460;2024-03-08T09:24:12;98890.94;;;0.18;70.10
58295;BME280;45705;55.592;37.460;2024-03-08T09:26:38;98892.97;;;0.11;69.94
58295;BME280;45705;55.592;37.460;2024-03-08T09:29:06;98896.22;;;0.13;69.83
58295;BME280;45705;55.592;37.460;2024-03-08T09:31:32;98881.28;;;0.17;70.00
58295;BME280;45705;55.592;37.460;2024-03-08T09:33:58;98887.31;;;0.07;70.05
58295;BME280;45705;55.592;37.460;2024-03-08T09:36:24;98881.44;;;0.27;70.00
58295;BME280;45705;55.592;37.460;2024-03-08T09:38:50;98880.22;;;0.57;68.65
58295;BME280;45705;55.592;37.460;2024-03-08T09:41:16;98878.78;;;0.27;68.35
58295;BME280;45705;55.592;37.460;2024-03-08T09:43:43;98865.47;;;-0.07;69.82
58295;BME280;45705;55.592;37.460;2024-03-08T09:46:10;98880.69;;;0.10;71.08
58295;BME280;45705;55.592;37.460;2024-03-08T09:48:36;98882.72;;;0.03;71.23
58295;BME280;45705;55.592;37.460;2024-03-08T09:51:03;98886.59;;;0.12;70.49
58295;BME280;45705;55.592;37.460;2024-03-08T09:53:30;98879.09;;;0.53;70.05
58295;BME280;45705;55.592;37.460;2024-03-08T09:55:56;98876.72;;;0.34;69.84
58295;BME280;45705;55.592;37.460;2024-03-08T09:58:22;98879.47;;;0.39;69.91
58295;BME280;45705;55.592;37.460;2024-03-08T10:01:03;98877.47;;;0.52;69.01
58295;BME280;45705;55.592;37.460;2024-03-08T10:03:30;98872.97;;;0.80;68.01
58295;BME280;45705;55.592;37.460;2024-03-08T10:05:59;98882.31;;;0.55;68.65
58295;BME280;45705;55.592;37.460;2024-03-08T10:08:29;98878.28;;;0.74;67.92
58295;BME280;45705;55.592;37.460;2024-03-08T10:10:56;98877.19;;;0.75;68.19
58295;BME280;45705;55.592;37.460;2024-03-08T10:13:26;98881.06;;;0.41;69.00
58295;BME280;45705;55.592;37.460;2024-03-08T10:15:55;98882.25;;;0.50;69.21
58295;BME280;45705;55.592;37.460;2024-03-08T10:18:21;98870.00;;;0.76;68.55
58295;BME280;45705;55.592;37.460;2024-03-08T10:21:05;98867.31;;;0.54;67.80
58295;BME280;45705;55.592;37.460;2024-03-08T10:23:31;98867.31;;;0.54;69.13
58295;BME280;45705;55.592;37.460;2024-03-08T10:26:15;98878.47;;;0.46;69.11
58295;BME280;45705;55.592;37.460;2024-03-08T10:28:45;98877.47;;;0.52;68.90
58295;BME280;45705;55.592;37.460;2024-03-08T10:31:14;98872.44;;;0.33;70.21
58295;BME280;45705;55.592;37.460;2024-03-08T10:33:40;98867.50;;;0.25;69.47
58295;BME280;45705;55.592;37.460;2024-03-08T10:36:10;98866.00;;;0.34;69.67
58295;BME280;45705;55.592;37.460;2024-03-08T10:38:42;98870.00;;;0.10;70.32
58295;BME280;45705;55.592;37.460;2024-03-08T10:41:09;98865.00;;;0.41;70.55
58295;BME280;45705;55.592;37.460;2024-03-08T10:46:57;98861.78;;;0.38;69.99
58295;BME280;45705;55.592;37.460;2024-03-08T10:49:42;98860.09;;;0.76;69.22
58295;BME280;45705;55.592;37.460;2024-03-08T10:52:11;98855.47;;;0.94;68.20
58295;BME280;45705;55.592;37.460;2024-03-08T10:54:38;98855.59;;;1.09;67.79
58295;BME280;45705;55.592;37.460;2024-03-08T10:57:06;98854.72;;;1.31;66.61
58295;BME280;45705;55.592;37.460;2024-03-08T10:59:34;98850.66;;;0.96;68.07
58295;BME280;45705;55.592;37.460;2024-03-08T11:02:01;98863.94;;;0.86;68.33
58295;BME280;45705;55.592;37.460;2024-03-08T11:04:27;98857.72;;;1.07;68.18
58295;BME280;45705;55.592;37.460;2024-03-08T11:07:01;98860.94;;;1.36;67.46
58295;BME280;45705;55.592;37.460;2024-03-08T11:09:36;98855.41;;;1.48;67.45
58295;BME280;45705;55.592;37.460;2024-03-08T11:12:22;98860.56;;;1.23;67.59
58295;BME280;45705;55.592;37.460;2024-03-08T11:15:15;98855.19;;;1.55;67.60
58295;BME280;45705;55.592;37.460;2024-03-08T11:17:48;98853.84;;;1.52;66.60
58295;BME280;45705;55.592;37.460;2024-03-08T11:20:19;98833.44;;;1.46;65.59
58295;BME280;45705;55.592;37.460;2024-03-08T11:22:54;98860.47;;;1.45;66.59
58295;BME280;45705;55.592;37.460;2024-03-08T11:25:41;98850.09;;;1.53;66.85
58295;BME280;45705;55.592;37.460;2024-03-08T11:33:28;98867.75;;;1.22;68.05
58295;BME280;45705;55.592;37.460;2024-03-08T11:36:13;98855.53;;;1.64;67.66
58295;BME280;45705;55.592;37.460;2024-03-08T11:38:48;98857.50;;;1.14;69.26
58295;BME280;45705;55.592;37.460;2024-03-08T11:41:20;98846.19;;;1.34;68.88
58295;BME280;45705;55.592;37.460;2024-03-08T11:43:47;98849.50;;;1.46;68.63
58295;BME280;45705;55.592;37.460;2024-03-08T11:46:15;98861.25;;;1.40;68.67
58295;BME280;45705;55.592;37.460;2024-03-08T11:48:42;98858.81;;;1.38;68.24
58295;BME280;45705;55.592;37.460;2024-03-08T11:51:12;98868.72;;;1.38;68.64
58295;BME280;45705;55.592;37.460;2024-03-08T11:53:39;98858.63;;;1.18;69.51
58295;BME280;45705;55.592;37.460;2024-03-08T11:56:12;98861.13;;;1.30;69.41
58295;BME280;45705;55.592;37.460;2024-03-08T11:58:39;98866.53;;;1.35;69.96
58295;BME280;45705;55.592;37.460;2024-03-08T12:01:07;98864.81;;;1.18;70.58
58295;BME280;45705;55.592;37.460;2024-03-08T12:03:39;98850.75;;;1.06;69.89
58295;BME280;45705;55.592;37.460;2024-03-08T12:06:05;98858.94;;;1.22;70.87
58295;BME280;45705;55.592;37.460;2024-03-08T12:08:31;98864.19;;;1.11;70.37
58295;BME280;45705;55.592;37.460;2024-03-08T12:10:57;98860.56;;;1.23;70.78
58295;BME280;45705;55.592;37.460;2024-03-08T12:13:27;98866.09;;;1.16;70.79
58295;BME280;45705;55.592;37.460;2024-03-08T12:16:03;98859.72;;;1.49;70.59
58295;BME280;45705;55.592;37.460;2024-03-08T12:18:37;98853.06;;;1.25;70.75
58295;BME280;45705;55.592;37.460;2024-03-08T12:23:33;98857.06;;;1.54;68.79
58295;BME280;45705;55.592;37.460;2024-03-08T12:26:15;98857.81;;;1.17;70.47
58295;BME280;45705;55.592;37.460;2024-03-08T12:28:43;98857.75;;;1.12;70.58
58295;BME280;45705;55.592;37.460;2024-03-08T12:31:14;98856.63;;;1.03;70.97
58295;BME280;45705;55.592;37.460;2024-03-08T12:36:15;98865.38;;;1.21;70.92
58295;BME280;45705;55.592;37.460;2024-03-08T12:38:45;98858.44;;;0.97;71.27
58295;BME280;45705;55.592;37.460;2024-03-08T12:41:20;98857.31;;;1.21;71.64
58295;BME280;45705;55.592;37.460;2024-03-08T12:43:47;98868.44;;;1.07;70.76
58295;BME280;45705;55.592;37.460;2024-03-08T12:46:19;98864.81;;;0.91;72.00
58295;BME280;45705;55.592;37.460;2024-03-08T12:48:55;98862.47;;;1.00;72.62
58295;BME280;45705;55.592;37.460;2024-03-08T12:51:21;98857.81;;;1.17;71.19
58295;BME280;45705;55.592;37.460;2024-03-08T12:53:47;98864.75;;;1.13;71.61
58295;BME280;45705;55.592;37.460;2024-03-08T12:56:20;98860.44;;;1.12;72.48
58295;BME280;45705;55.592;37.460;2024-03-08T12:58:54;98862.63;;;1.15;71.23
58295;BME280;45705;55.592;37.460;2024-03-08T13:01:20;98863.09;;;1.07;71.26
58295;BME280;45705;55.592;37.460;2024-03-08T13:03:45;98873.19;;;1.00;72.18
58295;BME280;45705;55.592;37.460;2024-03-08T13:06:12;98866.72;;;0.96;72.90
58295;BME280;45705;55.592;37.460;2024-03-08T13:08:38;98873.97;;;1.01;73.51
58295;BME280;45705;55.592;37.460;2024-03-08T13:11:07;98854.38;;;0.95;73.61
58295;BME280;45705;55.592;37.460;2024-03-08T13:13:34;98864.38;;;0.77;73.47